Time;durP1;ratioP1;P1;durP2;ratioP2;P2;SDS_P1;SDS_P2;PMS_P1;PMS_P2;Temp;Humidity;BMP_temperature;BMP_pressure;BME280_temperature;BME280_humidity;BME280_pressure;Samples;Min_cycle;Max_cycle;Signal;HPM_P1;HPM_P2
2022/03/21 00:00:41;;;;;;;1.50;1.50;;;;;;;2.60;45.59;103036.31;103700;1274;94325;-64
2022/03/21 00:03:12;;;;;;;1.60;1.60;;;;;;;2.56;46.06;103036.98;103756;1274;137541;-64
2022/03/21 00:05:40;;;;;;;1.60;1.60;;;;;;;2.53;45.91;103037.54;104297;1274;108337;-64
2022/03/21 00:08:11;;;;;;;1.60;1.60;;;;;;;2.48;46.28;103035.23;103669;1275;138333;-64
2022/03/21 00:10:39;;;;;;;1.60;1.60;;;;;;;2.41;46.00;103041.70;103693;1275;108729;-64
2022/03/21 00:13:08;;;;;;;1.60;1.60;;;;;;;2.40;46.12;103040.78;103707;1274;94788;-65
2022/03/21 00:15:36;;;;;;;1.50;1.50;;;;;;;2.45;45.97;103036.65;103504;1274;137482;-65
2022/03/21 00:18:04;;;;;;;1.60;1.60;;;;;;;2.48;46.04;103036.44;103799;1274;108615;-64
2022/03/21 00:20:33;;;;;;;1.80;1.80;;;;;;;2.43;46.06;103044.29;103540;1274;137734;-65
2022/03/21 00:23:02;;;;;;;1.50;1.50;;;;;;;2.35;46.67;103040.73;103730;1274;108757;-66
2022/03/21 00:25:29;;;;;;;1.70;1.70;;;;;;;2.28;46.88;103039.98;103719;1274;137845;-63
2022/03/21 00:27:58;;;;;;;1.60;1.60;;;;;;;2.25;46.42;103042.10;103768;1274;94833;-64
2022/03/21 00:30:27;;;;;;;1.60;1.60;;;;;;;2.25;46.58;103040.55;103730;1274;108796;-64
2022/03/21 00:32:55;;;;;;;1.70;1.70;;;;;;;2.29;46.40;103044.77;104107;1274;137776;-64
2022/03/21 00:35:24;;;;;;;1.50;1.50;;;;;;;2.33;46.39;103045.18;104159;1277;108824;-64
2022/03/21 00:37:52;;;;;;;1.60;1.60;;;;;;;2.30;46.95;103045.52;103754;1274;138101;-62
2022/03/21 00:40:20;;;;;;;1.60;1.60;;;;;;;2.20;47.12;103042.23;103605;1274;94322;-60
2022/03/21 00:42:50;;;;;;;1.60;1.60;;;;;;;2.15;47.23;103043.94;104142;1274;107067;-65
2022/03/21 00:45:27;;;;;;;1.50;1.50;;;;;;;2.08;47.24;103042.85;103745;1274;138353;-66
2022/03/21 00:47:55;;;;;;;1.70;1.70;;;;;;;2.12;47.26;103039.20;103643;1274;108908;-64
2022/03/21 00:50:24;;;;;;;1.60;1.60;;;;;;;2.23;46.69;103040.27;103632;1274;138301;-66
2022/03/21 00:52:55;;;;;;;1.70;1.70;;;;;;;2.26;46.95;103039.73;103748;1274;94312;-64
2022/03/21 00:55:31;;;;;;;1.60;1.60;;;;;;;2.18;46.97;103036.90;104521;1274;138409;-64
2022/03/21 00:57:59;;;;;;;1.70;1.70;;;;;;;2.21;47.04;103037.39;105443;1274;99496;-65
2022/03/21 01:00:29;;;;;;;1.60;1.60;;;;;;;2.15;47.48;103035.70;103707;1274;108901;-65
2022/03/21 01:02:58;;;;;;;1.60;1.60;;;;;;;2.10;47.30;103034.91;103855;1274;138260;-64
2022/03/21 01:05:27;;;;;;;1.60;1.60;;;;;;;2.14;47.60;103038.81;103942;1274;94316;-64
2022/03/21 01:07:56;;;;;;;1.70;1.70;;;;;;;2.13;47.67;103039.80;103662;1274;138031;-66
2022/03/21 01:10:26;;;;;;;1.60;1.60;;;;;;;2.11;47.93;103036.37;103950;1274;98470;-65
2022/03/21 01:12:54;;;;;;;1.60;1.60;;;;;;;2.01;47.80;103037.78;104036;1274;108911;-65
2022/03/21 01:15:26;;;;;;;1.60;1.60;;;;;;;1.98;48.02;103038.30;103676;1274;137823;-63
2022/03/21 01:17:54;;;;;;;1.50;1.50;;;;;;;1.90;48.40;103038.59;103824;1274;94676;-64
2022/03/21 01:20:22;;;;;;;1.60;1.60;;;;;;;1.85;48.42;103036.75;103675;1274;138095;-64
2022/03/21 01:22:51;;;;;;;1.60;1.60;;;;;;;1.89;48.13;103032.58;104244;1274;99417;-64
2022/03/21 01:25:19;;;;;;;1.70;1.70;;;;;;;1.99;47.73;103026.11;103552;1274;282742;-64
2022/03/21 01:27:47;;;;;;;1.70;1.70;;;;;;;1.94;48.42;103026.92;103570;1277;138895;-65
2022/03/21 01:30:15;;;;;;;1.70;1.70;;;;;;;1.90;48.46;103027.38;104243;1275;96951;-65
2022/03/21 01:32:45;;;;;;;1.80;1.80;;;;;;;1.90;48.85;103025.83;103551;1274;137918;-65
2022/03/21 01:35:16;;;;;;;1.60;1.60;;;;;;;1.89;48.51;103025.90;103732;1274;99375;-65
2022/03/21 01:37:46;;;;;;;1.80;1.80;;;;;;;1.88;48.62;103022.55;103604;1274;137803;-65
2022/03/21 01:40:17;;;;;;;1.60;1.60;;;;;;;1.86;48.36;103022.79;103770;1274;94633;-63
2022/03/21 01:42:47;;;;;;;1.70;1.70;;;;;;;1.81;48.80;103022.76;103681;1274;94990;-63
2022/03/21 01:45:17;;;;;;;1.60;1.60;;;;;;;1.80;49.12;103019.34;103757;1274;137654;-62
2022/03/21 01:47:46;;;;;;;1.70;1.70;;;;;;;1.80;48.81;103017.11;103917;1274;99409;-65
2022/03/21 01:50:15;;;;;;;1.80;1.80;;;;;;;1.79;48.67;103016.81;103950;1274;137648;-61
2022/03/21 01:52:43;;;;;;;1.70;1.70;;;;;;;1.80;49.03;103017.42;103752;1274;94334;-64
2022/03/21 01:58:00;;;;;;;1.70;1.70;;;;;;;1.89;48.87;103011.92;103814;1274;139504;-62
2022/03/21 02:00:29;;;;;;;1.70;1.70;;;;;;;1.81;49.07;103011.85;103829;1274;99621;-64
2022/03/21 02:02:57;;;;;;;1.70;1.70;;;;;;;1.80;48.68;103011.62;103839;1274;137617;-64
2022/03/21 02:05:27;;;;;;;1.80;1.80;;;;;;;1.81;48.72;103010.44;103805;1274;94413;-65
2022/03/21 02:07:55;;;;;;;2.00;2.00;;;;;;;1.77;49.03;103010.95;103528;1276;138201;-66
2022/03/21 02:10:23;;;;;;;1.70;1.70;;;;;;;1.73;49.00;103008.50;103785;1274;108492;-62
2022/03/21 02:12:51;;;;;;;1.80;1.80;;;;;;;1.70;49.14;103007.61;103751;1274;97846;-62
2022/03/21 02:15:19;;;;;;;1.70;1.70;;;;;;;1.76;48.90;103006.20;103659;1274;137617;-64
2022/03/21 02:17:48;;;;;;;1.60;1.60;;;;;;;1.81;48.41;103005.18;103801;1274;94317;-64
2022/03/21 02:20:20;;;;;;;1.80;1.80;;;;;;;1.82;48.72;103008.05;103683;1274;137767;-63
2022/03/21 02:22:56;;;;;;;1.70;1.70;;;;;;;1.80;48.75;103011.80;103738;1274;108301;-64
2022/03/21 02:25:50;;;;;;;1.80;1.80;;;;;;;1.74;49.17;103012.19;103742;1274;98334;-64
2022/03/21 02:28:19;;;;;;;1.70;1.70;;;;;;;1.80;48.30;103014.79;103565;1274;137559;-63
2022/03/21 02:30:48;;;;;;;1.70;1.70;;;;;;;1.83;48.67;103016.70;103488;1274;94337;-63
2022/03/21 02:33:17;;;;;;;1.60;1.60;;;;;;;1.79;48.97;103016.15;103988;1274;138100;-62
2022/03/21 02:35:48;;;;;;;1.70;1.70;;;;;;;1.81;49.15;103010.79;103902;1274;108170;-65
2022/03/21 02:38:18;;;;;;;1.70;1.70;;;;;;;1.84;49.16;103013.08;103763;1274;138085;-63
2022/03/21 02:40:46;;;;;;;1.70;1.70;;;;;;;1.84;48.87;103007.11;103779;1274;108964;-65
2022/03/21 02:43:14;;;;;;;1.80;1.80;;;;;;;1.82;48.97;103008.77;103790;1274;95484;-62
2022/03/21 02:45:42;;;;;;;1.90;1.90;;;;;;;1.70;49.08;103012.68;103594;1274;138664;-64
2022/03/21 02:48:14;;;;;;;1.70;1.70;;;;;;;1.73;48.97;103014.95;103618;1276;107776;-65
2022/03/21 02:50:49;;;;;;;1.70;1.70;;;;;;;1.77;48.70;103018.32;103689;1274;137589;-64
2022/03/21 02:53:19;;;;;;;1.70;1.70;;;;;;;1.75;48.99;103017.02;103701;1274;108221;-64
2022/03/21 02:55:53;;;;;;;1.80;1.80;;;;;;;1.66;49.36;103016.19;103780;1274;96357;-65
2022/03/21 02:58:21;;;;;;;1.70;1.70;;;;;;;1.58;50.08;103019.59;103703;1274;137545;-64
2022/03/21 03:00:49;;;;;;;1.80;1.80;;;;;;;1.52;49.73;103016.29;103815;1274;108176;-63
2022/03/21 03:03:17;;;;;;;1.80;1.80;;;;;;;1.49;49.70;103013.52;103585;1274;137520;-62
2022/03/21 03:05:45;;;;;;;1.90;1.90;;;;;;;1.48;49.84;103016.08;103776;1274;108879;-64
2022/03/21 03:08:13;;;;;;;1.80;1.80;;;;;;;1.47;49.69;103017.44;103626;1274;137987;-61
2022/03/21 03:10:41;;;;;;;1.90;1.90;;;;;;;1.46;50.20;103015.45;103729;1274;94814;-64
2022/03/21 03:13:09;;;;;;;1.80;1.80;;;;;;;1.43;50.30;103017.38;103728;1274;108492;-63
2022/03/21 03:15:37;;;;;;;1.70;1.70;;;;;;;1.38;50.41;103016.63;103571;1274;142438;-64
2022/03/21 03:18:05;;;;;;;1.70;1.70;;;;;;;1.37;50.31;103010.60;103706;1274;108395;-63
2022/03/21 03:20:34;;;;;;;1.80;1.80;;;;;;;1.31;50.23;103009.96;103724;1274;138504;-63
2022/03/21 03:23:02;;;;;;;1.90;1.90;;;;;;;1.31;50.71;103002.23;103556;1276;94788;-63
2022/03/21 03:25:29;;;;;;;1.80;1.80;;;;;;;1.38;50.40;103007.00;103579;1274;108443;-63
2022/03/21 03:27:57;;;;;;;1.60;1.60;;;;;;;1.47;50.72;103006.96;103594;1274;137758;-64
2022/03/21 03:30:25;;;;;;;1.70;1.70;;;;;;;1.53;49.78;103002.35;103701;1274;108762;-63
2022/03/21 03:32:53;;;;;;;1.60;1.60;;;;;;;1.58;49.69;103003.84;103609;1274;137930;-63
2022/03/21 03:35:21;;;;;;;1.60;1.60;;;;;;;1.55;50.04;103008.07;103691;1274;97763;-63
2022/03/21 03:37:49;;;;;;;1.70;1.70;;;;;;;1.54;50.08;103006.59;103701;1274;108460;-64
2022/03/21 03:40:17;;;;;;;1.80;1.80;;;;;;;1.50;50.20;103008.86;103652;1274;137777;-64
2022/03/21 03:42:46;;;;;;;1.70;1.70;;;;;;;1.42;50.31;103002.27;103696;1274;108104;-64
2022/03/21 03:45:14;;;;;;;1.80;1.80;;;;;;;1.39;50.06;103001.77;103600;1274;137949;-64
2022/03/21 03:47:42;;;;;;;1.80;1.80;;;;;;;1.37;50.49;102995.90;103660;1274;94755;-63
2022/03/21 03:50:10;;;;;;;1.90;1.90;;;;;;;1.35;50.07;102993.16;103639;1274;137866;-64
2022/03/21 03:52:40;;;;;;;2.00;2.00;;;;;;;1.33;50.77;102995.52;103569;1276;99887;-64
2022/03/21 03:55:08;;;;;;;2.00;2.00;;;;;;;1.32;50.25;102996.70;103781;1274;108782;-64
2022/03/21 03:57:36;;;;;;;1.80;1.80;;;;;;;1.33;50.61;102997.61;103588;1274;137829;-65
2022/03/21 04:00:07;;;;;;;1.80;1.80;;;;;;;1.33;50.40;102997.45;103798;1273;94693;-64
2022/03/21 04:05:27;;;;;;;1.80;1.80;;;;;;;1.23;50.89;103001.44;103767;1274;99017;-63
2022/03/21 04:07:55;;;;;;;1.80;1.80;;;;;;;1.20;50.52;103003.20;103703;1274;108928;-62
2022/03/21 04:10:23;;;;;;;1.90;1.90;;;;;;;1.17;51.34;103003.58;103640;1274;137964;-63
2022/03/21 04:12:51;;;;;;;1.90;1.90;;;;;;;1.25;51.02;103006.30;103753;1274;94330;-63
2022/03/21 04:15:23;;;;;;;1.80;1.80;;;;;;;1.37;50.59;103004.47;103601;1274;137664;-64
2022/03/21 04:17:52;;;;;;;1.80;1.80;;;;;;;1.35;50.50;103002.64;103731;1274;99662;-63
2022/03/21 04:20:23;;;;;;;1.80;1.80;;;;;;;1.38;50.80;102999.26;103521;1274;137927;-64
2022/03/21 04:22:51;;;;;;;1.80;1.80;;;;;;;1.30;50.61;102996.23;103908;1274;95782;-64
2022/03/21 04:25:18;;;;;;;1.80;1.80;;;;;;;1.28;50.62;102994.73;103688;1274;94478;-66
2022/03/21 04:27:46;;;;;;;1.80;1.80;;;;;;;1.30;50.54;102998.16;103599;1274;137618;-65
2022/03/21 04:30:14;;;;;;;1.90;1.90;;;;;;;1.27;50.61;102995.88;103705;1274;99358;-63
2022/03/21 04:32:44;;;;;;;1.80;1.80;;;;;;;1.16;50.75;102998.09;103685;1274;137994;-64
2022/03/21 04:35:12;;;;;;;1.90;1.90;;;;;;;1.17;50.56;102999.20;104249;1274;94762;-64
2022/03/21 04:37:40;;;;;;;1.90;1.90;;;;;;;1.21;51.09;102999.59;103802;1274;94867;-63
2022/03/21 04:40:09;;;;;;;2.20;2.10;;;;;;;1.10;51.46;102999.69;103608;1274;137621;-64
2022/03/21 04:42:40;;;;;;;1.90;1.90;;;;;;;1.04;51.96;102998.66;103809;1274;99787;-64
2022/03/21 04:45:08;;;;;;;1.90;1.90;;;;;;;0.99;51.68;103002.27;103973;1274;138081;-65
2022/03/21 04:47:36;;;;;;;2.00;2.00;;;;;;;1.04;51.83;103001.64;103738;1274;94308;-65
2022/03/21 04:50:07;;;;;;;1.90;1.90;;;;;;;1.12;51.75;103001.91;103562;1274;139237;-63
2022/03/21 04:52:36;;;;;;;1.90;1.90;;;;;;;1.06;52.20;103005.12;103736;1276;109036;-64
2022/03/21 04:55:07;;;;;;;1.90;1.90;;;;;;;1.00;52.13;103007.76;104416;1274;99394;-63
2022/03/21 04:57:41;;;;;;;1.90;1.90;;;;;;;1.07;51.95;103010.01;103664;1274;139771;-63
2022/03/21 05:00:10;;;;;;;1.80;1.80;;;;;;;1.11;52.16;103008.17;103713;1274;94483;-63
2022/03/21 05:02:38;;;;;;;1.90;1.90;;;;;;;1.12;52.04;103006.66;103947;1274;139871;-63
2022/03/21 05:05:08;;;;;;;1.80;1.80;;;;;;;1.14;52.25;103012.17;103768;1274;107951;-65
2022/03/21 05:07:41;;;;;;;1.90;1.90;;;;;;;1.23;51.88;103013.02;104098;1274;98373;-65
2022/03/21 05:10:14;;;;;;;1.70;1.70;;;;;;;1.25;52.07;103012.56;103675;1274;138421;-64
2022/03/21 05:12:42;;;;;;;1.90;1.90;;;;;;;1.25;52.47;103014.15;103891;1274;94673;-64
2022/03/21 05:15:09;;;;;;;1.90;1.90;;;;;;;1.31;51.83;103009.40;103589;1274;138209;-63
2022/03/21 05:17:38;;;;;;;1.90;1.90;;;;;;;1.37;51.59;103009.56;103755;1274;108517;-64
2022/03/21 05:20:11;;;;;;;1.90;1.90;;;;;;;1.36;51.50;103011.80;103509;1276;140093;-63
2022/03/21 05:22:39;;;;;;;1.90;1.90;;;;;;;1.30;52.12;103013.04;103678;1276;107778;-63
2022/03/21 05:30:59;;;;;;;1.80;1.80;;;;;;;1.47;52.32;103018.67;103689;1274;108462;-62
2022/03/21 05:36:14;;;;;;;1.60;1.60;;;;;;;1.63;51.94;103014.77;103692;1274;109250;-63
2022/03/21 05:38:42;;;;;;;1.60;1.60;;;;;;;1.69;51.65;103018.41;103663;1274;138471;-63
2022/03/21 05:41:10;;;;;;;1.70;1.70;;;;;;;1.78;51.40;103016.08;103780;1274;94863;-65
2022/03/21 05:43:38;;;;;;;1.70;1.70;;;;;;;1.81;51.49;103019.40;103787;1274;108698;-58
2022/03/21 05:46:06;;;;;;;1.70;1.70;;;;;;;1.82;51.57;103022.27;103631;1274;136730;-63
2022/03/21 05:51:24;;;;;;;1.70;1.70;;;;;;;1.89;52.29;103020.31;103588;1274;137709;-60
2022/03/21 05:53:52;;;;;;;1.60;1.60;;;;;;;1.98;52.15;103022.02;103604;1274;94731;-64
2022/03/21 05:56:21;;;;;;;1.50;1.50;;;;;;;2.10;51.88;103021.59;103558;1277;137663;-63
2022/03/21 05:58:49;;;;;;;1.80;1.80;;;;;;;2.20;51.80;103018.73;103810;1273;99365;-63
2022/03/21 06:01:21;;;;;;;1.70;1.70;;;;;;;2.29;51.72;103024.27;103649;1274;108963;-65
2022/03/21 06:03:54;;;;;;;1.60;1.60;;;;;;;2.43;51.71;103022.67;103740;1274;137726;-64
2022/03/21 06:06:23;;;;;;;1.60;1.60;;;;;;;2.60;51.75;103024.06;103889;1274;94516;-64
2022/03/21 06:08:51;;;;;;;1.40;1.40;;;;;;;2.72;50.92;103025.86;103670;1274;138111;-64
2022/03/21 06:11:19;;;;;;;1.60;1.60;;;;;;;2.84;51.14;103029.56;103818;1274;99742;-63
2022/03/21 06:13:47;;;;;;;1.40;1.40;;;;;;;2.93;50.64;103024.41;103693;1274;108501;-63
2022/03/21 06:16:17;;;;;;;1.50;1.50;;;;;;;3.01;50.82;103028.13;103529;1274;137861;-64
2022/03/21 06:18:46;;;;;;;1.60;1.60;;;;;;;3.06;50.34;103027.48;103789;1274;94586;-66
2022/03/21 06:21:14;;;;;;;1.50;1.50;;;;;;;3.10;50.47;103025.36;103704;1274;137999;-66
2022/03/21 06:23:41;;;;;;;1.50;1.50;;;;;;;3.12;50.97;103030.36;103801;1274;99330;-65
2022/03/21 06:26:09;;;;;;;1.50;1.50;;;;;;;3.18;50.83;103028.73;103594;1274;138540;-63
2022/03/21 06:28:37;;;;;;;1.40;1.40;;;;;;;3.23;50.60;103029.33;103540;1274;94375;-64
2022/03/21 06:31:05;;;;;;;1.30;1.30;;;;;;;3.30;50.27;103028.91;103708;1274;94499;-68
2022/03/21 06:33:33;;;;;;;1.30;1.30;;;;;;;3.35;50.49;103029.85;103712;1274;137780;-63
2022/03/21 06:36:02;;;;;;;1.30;1.30;;;;;;;3.43;50.60;103031.98;103595;1274;98585;-63
2022/03/21 06:38:30;;;;;;;1.40;1.40;;;;;;;3.55;50.75;103030.94;104127;1272;138325;-66
2022/03/21 06:40:59;;;;;;;1.30;1.30;;;;;;;3.67;49.52;103034.80;103772;1274;94341;-64
2022/03/21 06:43:27;;;;;;;1.30;1.30;;;;;;;3.81;48.81;103027.69;103338;1274;94302;-62
2022/03/21 06:45:56;;;;;;;1.30;1.30;;;;;;;3.95;48.09;103024.46;103487;1274;139447;-63
2022/03/21 06:48:25;;;;;;;1.20;1.20;;;;;;;4.08;47.62;103028.00;103889;1274;99568;-61
2022/03/21 06:50:55;;;;;;;1.10;1.10;;;;;;;4.24;46.59;103025.34;103473;1274;138932;-64
2022/03/21 06:53:23;;;;;;;1.20;1.20;;;;;;;4.42;46.17;103028.00;103809;1274;94705;-64
2022/03/21 06:55:51;;;;;;;1.20;1.20;;;;;;;4.60;45.70;103032.77;103701;1277;94751;-63
2022/03/21 06:58:19;;;;;;;1.00;1.00;;;;;;;4.83;43.77;103032.48;103640;1274;137982;-63
2022/03/21 07:00:48;;;;;;;1.00;1.00;;;;;;;5.05;42.96;103034.02;103641;1274;99370;-64
2022/03/21 07:03:16;;;;;;;1.10;1.10;;;;;;;5.20;42.96;103033.92;104547;1274;137749;-63
2022/03/21 07:05:45;;;;;;;1.00;1.00;;;;;;;5.37;43.12;103031.59;103895;1274;95223;-63
2022/03/21 07:08:13;;;;;;;1.00;1.00;;;;;;;5.55;42.14;103029.92;103645;1274;140933;-64
2022/03/21 07:10:44;;;;;;;1.00;1.00;;;;;;;5.76;41.58;103025.05;103629;1274;109688;-62
2022/03/21 07:13:12;;;;;;;1.00;1.00;;;;;;;6.00;42.25;103025.75;103809;1274;99336;-65
2022/03/21 07:15:40;;;;;;;0.90;0.90;;;;;;;6.13;41.46;103030.64;103464;1274;138290;-62
2022/03/21 07:18:10;;;;;;;0.80;0.80;;;;;;;6.25;41.23;103032.98;103714;1274;95646;-64
2022/03/21 07:20:42;;;;;;;1.00;1.00;;;;;;;6.37;40.67;103036.56;103597;1274;138827;-64
2022/03/21 07:23:10;;;;;;;0.90;0.90;;;;;;;6.51;40.00;103042.48;103734;1274;109798;-63
2022/03/21 07:25:38;;;;;;;0.80;0.80;;;;;;;6.68;39.97;103041.80;103789;1274;99381;-65
2022/03/21 07:28:06;;;;;;;0.80;0.80;;;;;;;6.88;39.55;103043.31;103579;1274;137789;-64
2022/03/21 07:30:34;;;;;;;0.80;0.80;;;;;;;7.05;38.99;103044.21;103709;1274;95929;-64
2022/03/21 07:33:01;;;;;;;0.70;0.70;;;;;;;7.20;38.15;103043.60;103642;1274;137736;-65
2022/03/21 07:35:30;;;;;;;0.70;0.70;;;;;;;7.36;37.42;103042.84;103662;1274;109674;-63
2022/03/21 07:37:58;;;;;;;0.70;0.70;;;;;;;7.52;37.37;103042.59;103971;1274;99472;-64
2022/03/21 07:40:26;;;;;;;0.70;0.70;;;;;;;7.70;36.01;103037.80;103719;1274;138439;-63
2022/03/21 07:42:55;;;;;;;0.60;0.60;;;;;;;7.88;36.46;103036.01;103771;1274;95209;-65
2022/03/21 07:48:11;;;;;;;0.60;0.60;;;;;;;8.12;36.12;103038.07;103749;1273;109431;-63
2022/03/21 07:50:41;;;;;;;0.60;0.60;;;;;;;8.23;36.05;103040.11;103638;1274;138180;-62
2022/03/21 07:53:10;;;;;;;0.60;0.60;;;;;;;8.35;35.57;103042.91;103891;1274;107291;-65
2022/03/21 07:55:37;;;;;;;0.70;0.70;;;;;;;8.53;35.01;103040.02;103715;1274;96071;-65
2022/03/21 07:58:05;;;;;;;0.50;0.50;;;;;;;8.63;34.67;103037.06;103690;1274;138197;-65
2022/03/21 08:00:33;;;;;;;0.60;0.60;;;;;;;8.74;33.44;103040.71;103757;1274;109713;-63
2022/03/21 08:03:02;;;;;;;0.70;0.70;;;;;;;8.91;32.70;103039.16;103590;1276;138547;-64
2022/03/21 08:05:31;;;;;;;0.60;0.60;;;;;;;9.03;33.16;103037.66;103721;1274;108873;-64
2022/03/21 08:07:58;;;;;;;0.50;0.50;;;;;;;9.16;33.24;103036.17;103761;1274;95151;-64
2022/03/21 08:10:29;;;;;;;0.50;0.50;;;;;;;9.32;31.66;103031.20;103676;1274;138053;-64
2022/03/21 08:12:57;;;;;;;0.50;0.50;;;;;;;9.48;32.19;103030.65;103894;1274;109640;-65
2022/03/21 08:15:28;;;;;;;0.50;0.50;;;;;;;9.54;31.36;103028.45;103717;1274;138072;-64
2022/03/21 08:17:59;;;;;;;0.50;0.50;;;;;;;9.71;30.94;103026.50;103746;1273;108846;-65
2022/03/21 08:20:34;;;;;;;0.50;0.50;;;;;;;9.90;31.25;103027.56;103608;1274;138681;-65
2022/03/21 08:23:07;;;;;;;0.50;0.50;;;;;;;10.05;30.08;103025.71;104131;1274;96117;-65
2022/03/21 08:25:36;;;;;;;0.50;0.50;;;;;;;10.17;30.05;103026.98;104141;1274;108669;-64
2022/03/21 08:28:08;;;;;;;0.40;0.40;;;;;;;10.31;29.82;103027.77;103619;1274;141572;-63
2022/03/21 08:30:37;;;;;;;0.50;0.40;;;;;;;10.43;29.88;103028.00;103497;1274;109262;-61
2022/03/21 08:33:07;;;;;;;0.40;0.40;;;;;;;10.63;29.84;103027.79;103990;1274;138884;-64
2022/03/21 08:35:37;;;;;;;0.50;0.40;;;;;;;10.81;29.43;103029.86;103592;1274;95646;-67
2022/03/21 08:38:07;;;;;;;0.50;0.40;;;;;;;10.98;29.78;103024.41;103914;1274;138243;-64
2022/03/21 08:40:36;;;;;;;0.40;0.40;;;;;;;11.12;29.35;103015.88;103524;1274;98449;-64
2022/03/21 08:43:05;;;;;;;0.40;0.30;;;;;;;11.29;28.58;103018.61;103689;1274;107798;-64
2022/03/21 08:45:34;;;;;;;0.40;0.30;;;;;;;11.40;27.89;103011.44;103640;1274;138453;-64
2022/03/21 08:48:03;;;;;;;0.40;0.30;;;;;;;11.46;27.28;103013.30;103616;1277;95613;-64
2022/03/21 08:50:34;;;;;;;0.40;0.30;;;;;;;11.53;27.15;103010.71;103670;1272;138403;-64
2022/03/21 08:53:02;;;;;;;0.40;0.30;;;;;;;11.62;27.24;103007.60;103707;1274;99589;-64
2022/03/21 08:55:31;;;;;;;0.40;0.30;;;;;;;11.70;27.89;103005.05;103835;1274;109122;-64
2022/03/21 08:57:59;;;;;;;0.40;0.30;;;;;;;11.86;28.12;103003.25;103583;1274;138303;-64
2022/03/21 09:00:27;;;;;;;0.40;0.30;;;;;;;12.00;26.74;103005.02;103754;1274;96217;-64
2022/03/21 09:02:55;;;;;;;0.40;0.40;;;;;;;12.13;26.05;102996.59;103551;1274;138515;-64
2022/03/21 09:05:24;;;;;;;0.40;0.40;;;;;;;12.65;24.98;102997.00;103701;1274;99352;-64
2022/03/21 09:07:52;;;;;;;0.40;0.40;;;;;;;13.82;23.69;102990.36;103651;1274;108805;-65
2022/03/21 09:10:20;;;;;;;0.40;0.30;;;;;;;15.54;22.43;102989.73;103640;1274;138376;-64
2022/03/21 09:12:48;;;;;;;0.40;0.20;;;;;;;17.59;21.85;102986.70;103729;1274;95595;-64
2022/03/21 09:15:16;;;;;;;0.40;0.20;;;;;;;19.44;19.95;102982.88;103643;1274;138687;-64
2022/03/21 09:17:44;;;;;;;0.40;0.10;;;;;;;21.40;18.98;102982.13;103693;1274;99889;-64
2022/03/21 09:20:14;;;;;;;0.40;0.10;;;;;;;23.16;17.18;102982.51;103590;1274;138272;-64
2022/03/21 09:22:42;;;;;;;0.40;0.10;;;;;;;24.44;15.91;102982.61;103797;1274;95412;-65
2022/03/21 09:25:10;;;;;;;0.40;0.10;;;;;;;25.52;14.70;102980.09;103794;1273;95143;-64
2022/03/21 09:27:42;;;;;;;0.40;0.10;;;;;;;26.18;13.53;102979.04;103687;1274;139103;-65
2022/03/21 09:30:12;;;;;;;0.40;0.10;;;;;;;26.45;13.01;102987.81;103626;1276;99347;-66
2022/03/21 09:32:39;;;;;;;0.40;0.10;;;;;;;26.90;12.81;102991.14;103660;1274;138731;-63
2022/03/21 09:35:08;;;;;;;0.40;0.10;;;;;;;27.80;12.90;102982.45;103937;1274;95722;-64
2022/03/21 09:37:36;;;;;;;0.40;0.00;;;;;;;28.99;12.27;102979.83;103751;1274;95408;-65
2022/03/21 09:40:06;;;;;;;0.40;0.00;;;;;;;28.92;11.08;102977.32;103592;1274;138169;-65
2022/03/21 09:42:35;;;;;;;0.40;0.00;;;;;;;27.49;11.80;102980.55;104152;1276;99400;-63
2022/03/21 09:45:04;;;;;;;0.40;0.00;;;;;;;26.69;12.63;102982.58;103646;1274;138117;-65
2022/03/21 09:50:19;;;;;;;0.40;0.10;;;;;;;26.69;12.43;102982.58;103636;1274;138805;-65
2022/03/21 09:52:46;;;;;;;0.40;0.10;;;;;;;27.39;12.16;102966.53;103714;1274;107900;-65
2022/03/21 09:55:14;;;;;;;0.40;0.00;;;;;;;28.22;11.53;102961.86;103721;1274;99393;-64
2022/03/21 09:57:42;;;;;;;0.40;0.00;;;;;;;28.91;10.87;102956.94;103563;1274;138230;-64
2022/03/21 10:00:11;;;;;;;0.40;0.10;;;;;;;29.11;9.89;102958.96;103724;1274;95592;-64
2022/03/21 10:02:39;;;;;;;0.40;0.00;;;;;;;29.38;10.41;102955.04;103613;1274;138934;-64
2022/03/21 10:05:07;;;;;;;0.40;0.00;;;;;;;30.31;10.19;102960.52;103662;1274;109829;-64
2022/03/21 10:07:36;;;;;;;0.40;0.00;;;;;;;31.31;9.95;102952.39;103622;1274;99339;-65
2022/03/21 10:10:09;;;;;;;0.40;0.00;;;;;;;31.65;8.53;102948.81;103542;1274;138457;-65
2022/03/21 10:12:37;;;;;;;0.40;0.00;;;;;;;31.24;9.35;102953.30;103632;1274;95310;-65
2022/03/21 10:15:06;;;;;;;0.40;0.00;;;;;;;32.01;9.63;102942.77;103551;1274;137301;-65
2022/03/21 10:17:34;;;;;;;0.40;0.00;;;;;;;32.47;8.27;102941.77;104052;1274;109904;-64
2022/03/21 10:20:03;;;;;;;0.40;0.00;;;;;;;32.40;8.43;102934.25;103659;1274;98819;-64
2022/03/21 10:22:37;;;;;;;0.40;0.00;;;;;;;32.44;8.80;102930.46;103806;1274;137647;-64
2022/03/21 10:25:07;;;;;;;0.40;0.00;;;;;;;33.42;8.57;102930.89;103922;1274;95361;-64
2022/03/21 10:27:36;;;;;;;0.40;0.00;;;;;;;34.37;8.32;102929.85;103823;1274;138750;-65
2022/03/21 10:30:08;;;;;;;0.40;0.00;;;;;;;34.12;7.25;102926.65;103716;1274;109781;-64
2022/03/21 10:32:57;;;;;;;0.40;0.00;;;;;;;34.10;7.85;102922.95;103920;1274;138809;-64
2022/03/21 10:35:30;;;;;;;0.40;0.00;;;;;;;34.92;7.70;102923.09;103559;1276;108827;-65
2022/03/21 10:38:00;;;;;;;0.40;0.00;;;;;;;35.53;7.20;102916.00;103909;1274;95256;-64
2022/03/21 10:40:47;;;;;;;0.40;0.00;;;;;;;35.57;7.09;102910.13;103794;1274;138479;-65
2022/03/21 10:43:16;;;;;;;0.40;0.00;;;;;;;35.33;7.00;102914.21;103958;1274;110190;-65
2022/03/21 10:45:47;;;;;;;0.40;0.00;;;;;;;35.70;7.21;102910.96;103568;1274;138003;-65
2022/03/21 10:48:18;;;;;;;0.40;0.00;;;;;;;36.30;6.98;102909.44;103873;1274;108973;-65
2022/03/21 10:50:48;;;;;;;0.40;0.00;;;;;;;36.77;6.66;102905.67;103631;1273;138222;-65
2022/03/21 10:53:19;;;;;;;0.40;0.00;;;;;;;36.26;6.74;102904.09;103652;1274;95203;-65
2022/03/21 10:55:49;;;;;;;0.40;0.00;;;;;;;33.74;7.48;102901.07;104019;1274;109948;-65
2022/03/21 10:58:18;;;;;;;0.40;0.00;;;;;;;31.73;8.66;102899.65;103538;1274;137928;-64
2022/03/21 11:00:45;;;;;;;0.40;0.00;;;;;;;30.13;8.93;102901.45;103546;1274;107729;-65
2022/03/21 11:03:16;;;;;;;0.40;0.00;;;;;;;28.60;9.42;102897.36;103575;1274;138009;-65
2022/03/21 11:05:48;;;;;;;0.40;0.00;;;;;;;27.08;10.29;102896.55;104255;1274;95623;-65
2022/03/21 11:08:18;;;;;;;0.40;0.00;;;;;;;26.06;10.92;102897.54;103529;1274;138454;-64
2022/03/21 11:10:46;;;;;;;0.40;0.00;;;;;;;25.15;11.24;102890.70;103930;1274;98888;-65
2022/03/21 11:13:14;;;;;;;0.40;0.00;;;;;;;24.24;11.64;102891.23;103702;1274;108901;-64
2022/03/21 11:15:41;;;;;;;0.40;0.00;;;;;;;22.84;11.72;102891.70;103545;1274;138374;-65
2022/03/21 11:18:10;;;;;;;0.40;0.10;;;;;;;21.82;12.52;102895.31;103661;1274;95586;-65
2022/03/21 11:20:38;;;;;;;0.40;0.10;;;;;;;20.82;13.21;102893.02;103628;1274;138355;-67
2022/03/21 11:23:06;;;;;;;0.40;0.10;;;;;;;19.96;13.66;102897.70;104044;1274;99877;-64
2022/03/21 11:25:37;;;;;;;0.40;0.10;;;;;;;19.30;14.15;102890.29;103676;1274;109791;-65
2022/03/21 11:28:39;;;;;;;0.40;0.10;;;;;;;18.89;14.83;102889.73;103622;1274;138327;-64
2022/03/21 11:31:16;;;;;;;0.40;0.10;;;;;;;18.86;15.43;102884.75;103650;1277;95211;-66
2022/03/21 11:34:09;;;;;;;0.40;0.10;;;;;;;18.70;15.55;102884.89;103942;1274;138436;-64
2022/03/21 11:36:56;;;;;;;0.40;0.10;;;;;;;18.59;15.81;102876.30;103647;1276;99381;-66
2022/03/21 11:39:25;;;;;;;0.40;0.10;;;;;;;18.35;15.58;102872.25;103596;1274;138192;-65
2022/03/21 11:42:09;;;;;;;0.40;0.10;;;;;;;18.15;15.91;102868.68;103667;1274;96999;-66
2022/03/21 11:44:38;;;;;;;0.40;0.10;;;;;;;17.94;15.91;102869.04;103628;1274;139751;-64
2022/03/21 11:47:23;;;;;;;0.40;0.20;;;;;;;17.59;16.41;102860.26;103715;1274;109674;-64
2022/03/21 11:49:52;;;;;;;0.40;0.10;;;;;;;17.14;16.08;102860.77;103795;1274;99284;-64
2022/03/21 11:52:22;;;;;;;0.40;0.20;;;;;;;16.89;16.88;102855.36;103587;1274;138234;-64